Time;durP1;ratioP1;P1;durP2;ratioP2;P2;SDS_P1;SDS_P2;PMS_P1;PMS_P2;Temp;Humidity;BMP_temperature;BMP_pressure;BME280_temperature;BME280_humidity;BME280_pressure;Samples;Min_cycle;Max_cycle;Signal;HPM_P1;HPM_P2
2021/01/01 00:01:07;;;;;;;11.23;4.32;;;;;;;15.64;40.12;101179.81;5090166;28;20112;-91
2021/01/01 00:03:32;;;;;;;5.05;2.65;;;;;;;15.53;40.53;101187.63;5075228;28;20054;-90
2021/01/01 00:05:58;;;;;;;10.82;4.85;;;;;;;15.80;39.89;101177.22;5084825;28;20055;-91
2021/01/01 00:08:24;;;;;;;27.33;19.00;;;;;;;15.58;40.41;101183.06;5055902;28;20387;-94
2021/01/01 00:10:50;;;;;;;21.88;13.63;;;;;;;15.57;40.51;101186.94;5074044;28;20028;-82
2021/01/01 00:13:16;;;;;;;11.77;4.32;;;;;;;15.64;40.45;101190.00;5080357;28;20103;-81
2021/01/01 00:15:41;;;;;;;11.73;4.50;;;;;;;15.67;40.70;101184.63;5070782;28;20023;-93
2021/01/01 00:18:07;;;;;;;10.45;5.25;;;;;;;15.52;40.58;101188.75;5066507;28;20049;-79
2021/01/01 00:20:35;;;;;;;8.73;3.33;;;;;;;15.63;40.30;101185.63;5076427;28;20028;-80
2021/01/01 00:23:00;;;;;;;8.40;2.97;;;;;;;15.70;40.40;101192.19;5076540;28;20029;-86
2021/01/01 00:25:26;;;;;;;7.57;2.85;;;;;;;15.63;40.15;101194.69;5076205;28;20379;-80
2021/01/01 00:27:51;;;;;;;8.85;3.63;;;;;;;15.80;40.10;101196.53;5058180;28;20475;-86
2021/01/01 00:30:18;;;;;;;10.68;3.20;;;;;;;15.63;40.30;101194.69;5058240;28;20028;-80
2021/01/01 00:32:43;;;;;;;5.85;2.33;;;;;;;15.62;40.05;101195.03;5076362;28;20016;-82
2021/01/01 00:35:11;;;;;;;7.22;3.03;;;;;;;15.79;39.76;101194.88;5075832;28;20555;-83
2021/01/01 00:37:37;;;;;;;7.75;3.00;;;;;;;15.68;39.96;101190.94;5076348;28;20033;-80
2021/01/01 00:40:06;;;;;;;8.10;3.15;;;;;;;15.55;40.08;101195.53;5076123;28;20012;-86
2021/01/01 00:42:36;;;;;;;7.28;2.78;;;;;;;15.69;40.26;101204.38;5075959;28;20430;-80
2021/01/01 00:45:06;;;;;;;8.30;2.92;;;;;;;15.86;39.90;101205.38;5058251;28;20029;-81
2021/01/01 00:47:32;;;;;;;7.00;2.55;;;;;;;15.98;39.55;101214.50;5075868;28;20025;-87
2021/01/01 00:49:58;;;;;;;9.85;2.70;;;;;;;15.90;39.90;101214.59;5075832;28;20466;-85
2021/01/01 00:52:24;;;;;;;15.02;2.97;;;;;;;15.85;39.97;101214.78;5075951;28;20423;-82
2021/01/01 00:54:49;;;;;;;5.60;2.25;;;;;;;15.86;39.79;101219.94;5075870;28;20031;-85
2021/01/01 00:57:15;;;;;;;8.60;2.58;;;;;;;15.84;39.62;101218.69;5075714;28;20165;-80
2021/01/01 00:59:40;;;;;;;10.88;2.33;;;;;;;15.63;40.36;101215.91;5075685;28;20032;-81
2021/01/01 01:02:06;;;;;;;8.27;2.63;;;;;;;15.76;40.03;101223.94;5057841;28;20410;-80
2021/01/01 01:04:31;;;;;;;13.00;3.30;;;;;;;15.75;40.05;101227.03;5075723;28;20016;-86
2021/01/01 01:06:57;;;;;;;5.32;2.53;;;;;;;15.75;40.45;101224.28;5075664;28;20024;-84
2021/01/01 01:09:23;;;;;;;14.45;2.65;;;;;;;15.85;40.05;101223.84;5075587;28;20055;-80
2021/01/01 01:11:48;;;;;;;7.32;1.98;;;;;;;15.97;39.65;101223.94;5075454;28;20020;-80
2021/01/01 01:14:14;;;;;;;7.28;2.50;;;;;;;15.98;39.85;101228.28;5057432;28;20024;-86
2021/01/01 01:16:40;;;;;;;8.05;2.75;;;;;;;15.65;40.44;101227.44;5075565;28;20056;-86
2021/01/01 01:19:05;;;;;;;8.25;3.92;;;;;;;15.55;40.84;101229.38;5075428;28;20502;-85
2021/01/01 01:21:31;;;;;;;11.90;4.05;;;;;;;15.50;40.96;101228.81;5075338;28;20020;-86
2021/01/01 01:23:57;;;;;;;9.55;3.00;;;;;;;15.58;40.78;101227.94;5057388;28;20021;-80
2021/01/01 01:26:23;;;;;;;9.55;3.50;;;;;;;15.57;40.79;101223.56;5057375;28;20028;-85
2021/01/01 01:28:49;;;;;;;10.80;3.25;;;;;;;15.70;40.39;101233.53;5057285;28;20029;-80
2021/01/01 01:31:16;;;;;;;7.10;3.10;;;;;;;15.42;41.09;101235.16;5074133;28;20556;-79
2021/01/01 01:33:41;;;;;;;6.50;3.15;;;;;;;15.23;41.47;101227.34;5074949;28;20020;-86
2021/01/01 01:36:07;;;;;;;13.95;4.22;;;;;;;15.26;41.24;101235.75;5074753;28;20037;-80
2021/01/01 01:38:33;;;;;;;10.07;4.28;;;;;;;15.31;41.39;101234.72;5075095;28;20479;-81
2021/01/01 01:40:58;;;;;;;6.30;3.42;;;;;;;15.35;41.09;101240.41;5075063;28;20053;-80
2021/01/01 01:43:25;;;;;;;9.45;3.03;;;;;;;15.71;40.34;101242.59;5074961;28;20024;-86
2021/01/01 01:45:53;;;;;;;9.43;3.45;;;;;;;15.33;40.97;101243.47;5074796;28;20032;-85
2021/01/01 01:48:31;;;;;;;8.80;2.78;;;;;;;15.38;40.69;101247.97;5074674;28;20064;-86
2021/01/01 01:50:58;;;;;;;9.25;3.25;;;;;;;15.64;40.59;101251.41;5074618;28;20028;-80
2021/01/01 01:53:26;;;;;;;6.05;2.60;;;;;;;15.33;40.82;101256.41;5074762;28;20189;-81
2021/01/01 01:55:53;;;;;;;11.98;3.08;;;;;;;15.39;41.00;101252.34;5074615;28;20024;-86
2021/01/01 01:58:20;;;;;;;5.50;2.22;;;;;;;15.30;41.24;101249.66;5056571;28;20444;-80
2021/01/01 02:00:58;;;;;;;7.70;2.88;;;;;;;15.23;41.25;101250.16;5074437;28;20024;-81
2021/01/01 02:03:31;;;;;;;10.27;2.95;;;;;;;15.49;40.89;101260.22;5074617;28;20056;-80
2021/01/01 02:05:57;;;;;;;6.47;3.17;;;;;;;15.65;40.44;101258.53;5074463;28;20073;-80
2021/01/01 02:08:23;;;;;;;5.90;3.00;;;;;;;15.30;41.13;101271.66;5074489;28;20116;-80
2021/01/01 02:10:55;;;;;;;10.95;2.53;;;;;;;15.37;40.86;101268.41;5056340;28;20032;-85
2021/01/01 02:13:21;;;;;;;11.35;2.28;;;;;;;15.05;41.35;101265.16;5074482;28;20029;-84
2021/01/01 02:15:48;;;;;;;8.27;2.00;;;;;;;15.40;40.62;101265.78;5074130;28;20490;-80
2021/01/01 02:18:35;;;;;;;7.93;2.13;;;;;;;15.27;40.72;101273.16;5074168;28;20040;-80
2021/01/01 02:21:02;;;;;;;6.72;2.00;;;;;;;15.51;40.32;101282.75;5074083;28;20036;-80
2021/01/01 02:23:28;;;;;;;9.88;3.03;;;;;;;15.70;40.12;101280.38;5073925;28;20035;-79
2021/01/01 02:25:53;;;;;;;4.53;1.70;;;;;;;15.69;39.99;101277.94;5056060;28;20028;-80
2021/01/01 02:28:19;;;;;;;8.02;2.13;;;;;;;15.78;39.58;101276.75;5055929;28;20067;-80
2021/01/01 02:30:45;;;;;;;8.13;2.53;;;;;;;15.88;39.59;101292.09;5073933;28;20085;-80
2021/01/01 02:33:11;;;;;;;5.93;2.75;;;;;;;15.69;39.95;101287.03;5073764;28;20426;-79
2021/01/01 02:35:37;;;;;;;11.05;2.60;;;;;;;15.68;39.86;101301.13;5055632;28;20048;-85
2021/01/01 02:38:02;;;;;;;6.25;2.28;;;;;;;15.67;40.04;101289.31;5073768;28;20066;-86
2021/01/01 02:40:28;;;;;;;8.52;2.10;;;;;;;15.95;39.41;101305.34;5055791;28;20039;-80
2021/01/01 02:42:53;;;;;;;6.13;1.70;;;;;;;15.98;39.57;101288.13;5073420;28;20510;-85
2021/01/01 02:45:19;;;;;;;10.27;2.13;;;;;;;15.85;39.74;101295.50;5073519;28;20399;-80
2021/01/01 02:47:45;;;;;;;9.73;2.50;;;;;;;16.02;39.42;101303.66;5073478;28;20028;-81
2021/01/01 02:50:12;;;;;;;6.10;1.95;;;;;;;15.94;39.35;101304.50;5073494;28;20536;-80
2021/01/01 02:52:38;;;;;;;6.32;2.50;;;;;;;16.05;39.16;101307.69;5073436;28;20027;-80
2021/01/01 02:55:04;;;;;;;8.63;3.28;;;;;;;15.98;39.42;101302.69;5073282;28;20021;-80
2021/01/01 02:57:30;;;;;;;7.97;2.50;;;;;;;16.03;39.42;101316.28;5073277;28;20032;-80
2021/01/01 02:59:55;;;;;;;11.98;2.00;;;;;;;16.04;39.25;101311.59;5073178;28;20030;-84
2021/01/01 03:02:21;;;;;;;4.63;2.00;;;;;;;16.12;39.11;101320.94;5073129;28;20027;-86
2021/01/01 03:04:47;;;;;;;10.30;1.73;;;;;;;16.06;39.15;101332.16;5073192;28;20506;-79
2021/01/01 03:07:12;;;;;;;3.80;1.77;;;;;;;16.08;38.96;101312.50;5073332;28;20024;-81
2021/01/01 03:09:38;;;;;;;5.85;1.95;;;;;;;16.20;39.01;101331.09;5055154;28;20029;-80
2021/01/01 03:12:04;;;;;;;6.55;1.77;;;;;;;16.14;38.92;101319.44;5073131;28;20149;-81
2021/01/01 03:14:29;;;;;;;8.63;1.70;;;;;;;16.21;38.69;101316.97;5073167;28;20067;-80
2021/01/01 03:16:55;;;;;;;9.82;2.38;;;;;;;16.19;38.85;101324.75;5073133;28;20086;-80
2021/01/01 03:19:20;;;;;;;11.25;2.80;;;;;;;16.06;39.16;101326.63;5072955;28;20477;-86
2021/01/01 03:21:46;;;;;;;7.03;2.25;;;;;;;16.14;39.08;101324.16;5073019;28;20029;-83
2021/01/01 03:24:11;;;;;;;12.70;2.88;;;;;;;16.14;38.90;101327.72;5072899;28;20039;-79
2021/01/01 03:26:37;;;;;;;12.98;2.30;;;;;;;16.18;39.16;101330.63;5072866;28;20021;-80
2021/01/01 03:29:03;;;;;;;8.23;1.90;;;;;;;16.16;39.13;101328.19;5072927;28;20124;-86
2021/01/01 03:31:28;;;;;;;9.27;2.28;;;;;;;16.18;38.91;101331.44;5072788;28;20627;-80
2021/01/01 03:33:54;;;;;;;4.93;2.00;;;;;;;16.04;39.16;101334.44;5072741;28;20033;-85
2021/01/01 03:36:19;;;;;;;11.18;3.25;;;;;;;15.93;39.29;101335.16;5072615;28;20045;-80
2021/01/01 03:38:46;;;;;;;8.18;2.95;;;;;;;15.99;39.18;101339.34;5054943;28;20032;-80
2021/01/01 03:41:13;;;;;;;8.57;2.58;;;;;;;15.95;39.03;101332.91;5072717;28;20029;-83
2021/01/01 03:43:38;;;;;;;7.15;2.90;;;;;;;15.95;38.96;101335.66;5053643;28;20530;-80
2021/01/01 03:46:04;;;;;;;5.28;1.95;;;;;;;15.88;38.98;101343.66;5054332;28;20032;-85
2021/01/01 03:48:30;;;;;;;10.43;3.35;;;;;;;15.82;39.15;101341.06;5072566;28;20028;-80
2021/01/01 03:50:55;;;;;;;6.90;2.13;;;;;;;15.91;38.77;101349.28;5072643;28;20025;-79
2021/01/01 03:53:21;;;;;;;7.18;1.92;;;;;;;15.74;38.90;101352.16;5054075;28;20379;-83
2021/01/01 03:55:46;;;;;;;7.85;2.15;;;;;;;14.99;39.58;101347.06;5072448;28;20029;-80
2021/01/01 03:58:12;;;;;;;6.03;1.52;;;;;;;15.28;39.42;101353.78;5072819;28;20036;-79
2021/01/01 04:00:38;;;;;;;8.40;1.95;;;;;;;14.94;40.15;101350.00;5072654;28;20016;-85
2021/01/01 04:03:03;;;;;;;5.03;2.45;;;;;;;14.90;39.98;101354.56;5054604;28;20086;-79
2021/01/01 04:05:29;;;;;;;5.25;1.88;;;;;;;14.84;39.75;101349.53;5072493;28;20052;-80
2021/01/01 04:07:54;;;;;;;6.22;1.80;;;;;;;14.88;39.89;101345.78;5072440;28;20032;-80
2021/01/01 04:10:20;;;;;;;6.65;2.03;;;;;;;14.47;40.55;101351.03;5054362;28;20107;-80
2021/01/01 04:12:46;;;;;;;8.32;1.60;;;;;;;14.68;40.15;101352.81;5072470;28;20490;-80
2021/01/01 04:15:12;;;;;;;6.13;1.92;;;;;;;14.85;39.75;101349.22;5054566;28;20036;-80
2021/01/01 04:17:37;;;;;;;6.63;1.80;;;;;;;14.65;39.99;101352.63;5072483;28;20031;-80
2021/01/01 04:20:04;;;;;;;6.65;1.73;;;;;;;14.46;40.10;101350.25;5072396;28;20028;-85
2021/01/01 04:22:30;;;;;;;6.90;2.30;;;;;;;14.34;40.41;101345.34;5072369;28;20021;-87
2021/01/01 04:24:55;;;;;;;11.23;2.03;;;;;;;14.20;40.78;101350.19;5072577;28;20074;-80
2021/01/01 04:27:21;;;;;;;5.85;1.70;;;;;;;14.34;40.46;101344.53;5072251;28;20021;-86
2021/01/01 04:29:47;;;;;;;6.75;1.80;;;;;;;14.51;39.88;101354.75;5072327;28;20116;-79
2021/01/01 04:32:12;;;;;;;6.70;1.38;;;;;;;14.40;40.01;101343.25;5072331;28;20033;-80
2021/01/01 04:34:38;;;;;;;8.30;1.85;;;;;;;14.46;39.81;101349.44;5072239;28;20021;-80
2021/01/01 04:37:03;;;;;;;5.45;1.58;;;;;;;14.63;39.39;101341.97;5072041;28;20040;-82
2021/01/01 04:39:29;;;;;;;6.72;1.77;;;;;;;14.63;39.37;101346.66;5072048;28;20052;-79
2021/01/01 04:41:55;;;;;;;4.32;1.92;;;;;;;14.21;40.27;101340.00;5072252;28;20032;-80
2021/01/01 04:44:25;;;;;;;7.32;2.15;;;;;;;14.26;39.87;101345.34;5072077;28;20028;-80
2021/01/01 04:46:52;;;;;;;8.55;1.70;;;;;;;14.22;40.56;101342.44;5072180;28;20042;-81
2021/01/01 04:49:18;;;;;;;4.07;1.63;;;;;;;14.11;40.19;101336.44;5054005;28;20107;-79
2021/01/01 04:51:44;;;;;;;6.18;1.90;;;;;;;14.23;40.03;101338.56;5071995;28;20475;-80
2021/01/01 04:54:11;;;;;;;4.15;1.58;;;;;;;14.28;39.71;101335.66;5071926;28;20029;-85
2021/01/01 04:56:49;;;;;;;6.90;2.47;;;;;;;14.36;39.34;101353.28;5054022;28;20568;-79
2021/01/01 04:59:16;;;;;;;7.03;2.15;;;;;;;14.23;39.66;101363.31;5054064;28;20040;-80
2021/01/01 05:01:45;;;;;;;5.35;2.03;;;;;;;14.23;39.47;101360.56;5071925;28;20391;-78
2021/01/01 05:04:12;;;;;;;6.68;2.28;;;;;;;14.13;39.90;101355.34;5054097;28;20032;-80
2021/01/01 05:06:42;;;;;;;7.15;1.75;;;;;;;14.02;39.57;101345.81;5074485;28;20024;-80
2021/01/01 05:09:10;;;;;;;5.10;1.95;;;;;;;13.99;39.83;101343.72;5075436;28;20032;-80
2021/01/01 05:11:35;;;;;;;6.55;1.85;;;;;;;14.01;39.80;101342.25;5075508;28;20103;-80
2021/01/01 05:14:05;;;;;;;9.25;1.92;;;;;;;13.91;40.11;101339.84;5075330;28;20021;-84
2021/01/01 05:16:31;;;;;;;5.38;1.88;;;;;;;13.89;39.59;101342.88;5075267;28;20024;-80
2021/01/01 05:18:57;;;;;;;11.32;2.03;;;;;;;13.87;39.74;101344.34;5057313;28;20082;-85
2021/01/01 05:21:27;;;;;;;9.20;2.75;;;;;;;13.85;39.87;101346.59;5057304;28;20066;-80
2021/01/01 05:23:56;;;;;;;5.72;1.30;;;;;;;13.88;39.71;101346.75;5075254;28;20023;-79
2021/01/01 05:26:27;;;;;;;5.18;1.92;;;;;;;13.91;39.78;101342.59;5075072;28;20020;-84
2021/01/01 05:29:02;;;;;;;6.45;1.52;;;;;;;13.95;39.45;101348.22;5075067;28;20487;-86
2021/01/01 05:31:30;;;;;;;28.58;2.97;;;;;;;13.89;39.62;101356.63;5075151;28;20036;-79
2021/01/01 05:34:03;;;;;;;7.22;2.03;;;;;;;13.83;39.72;101355.19;5074934;28;20028;-85
2021/01/01 05:36:37;;;;;;;5.13;1.70;;;;;;;13.85;39.81;101352.91;5074892;28;20043;-80
2021/01/01 05:39:06;;;;;;;7.30;1.73;;;;;;;13.85;39.61;101361.16;5056884;28;20502;-79
2021/01/01 05:41:34;;;;;;;6.40;1.40;;;;;;;13.85;39.51;101358.41;5074719;28;20020;-80
2021/01/01 05:44:17;;;;;;;9.87;1.67;;;;;;;13.78;39.69;101368.25;5074824;28;20481;-80
2021/01/01 05:47:03;;;;;;;6.20;1.63;;;;;;;13.87;39.68;101364.38;5074791;28;20025;-86
2021/01/01 05:49:39;;;;;;;6.53;1.65;;;;;;;13.69;40.00;101361.91;5074655;28;20028;-84
2021/01/01 05:52:06;;;;;;;7.22;1.80;;;;;;;13.44;40.53;101372.47;5074931;28;20035;-80
2021/01/01 05:54:32;;;;;;;4.78;1.50;;;;;;;13.35;40.90;101376.31;5056799;28;20067;-80
2021/01/01 05:56:58;;;;;;;6.65;1.60;;;;;;;13.64;40.33;101376.59;5056778;28;20031;-85
2021/01/01 05:59:26;;;;;;;8.88;1.75;;;;;;;13.60;40.32;101364.63;5056629;28;20103;-79
2021/01/01 06:01:56;;;;;;;4.53;1.33;;;;;;;13.96;39.80;101371.81;5074452;28;20078;-85
2021/01/01 06:04:23;;;;;;;4.32;1.00;;;;;;;14.02;39.63;101374.09;5074235;28;20091;-84
2021/01/01 06:06:53;;;;;;;8.05;2.22;;;;;;;14.00;39.53;101372.81;5056281;28;20502;-81
2021/01/01 06:09:20;;;;;;;10.20;1.90;;;;;;;14.11;39.22;101369.41;5074364;28;20028;-80
2021/01/01 06:12:10;;;;;;;7.07;1.95;;;;;;;14.00;39.57;101370.06;5074280;28;20120;-79
2021/01/01 06:14:40;;;;;;;8.43;1.45;;;;;;;13.98;39.65;101378.63;5074299;28;20035;-79
2021/01/01 06:17:09;;;;;;;7.15;1.20;;;;;;;13.97;39.56;101376.19;5073715;28;20035;-79
2021/01/01 06:19:47;;;;;;;8.75;1.60;;;;;;;13.84;39.82;101376.00;5074186;28;20444;-80
2021/01/01 06:22:31;;;;;;;4.13;1.40;;;;;;;13.87;39.59;101386.34;5074110;28;20094;-79
2021/01/01 06:25:01;;;;;;;4.28;1.17;;;;;;;13.84;39.63;101384.25;5056003;28;20058;-79
2021/01/01 06:27:30;;;;;;;4.72;1.40;;;;;;;13.84;39.53;101392.50;5073930;28;20029;-79
2021/01/01 06:29:58;;;;;;;10.10;2.03;;;;;;;13.80;39.50;101386.00;5056065;28;20021;-79
2021/01/01 06:32:25;;;;;;;4.97;1.27;;;;;;;13.78;39.50;101388.28;5073821;28;20119;-82
2021/01/01 06:34:52;;;;;;;6.35;1.45;;;;;;;13.67;39.57;101386.94;5073607;28;20172;-80
2021/01/01 06:37:43;;;;;;;7.20;1.45;;;;;;;13.62;39.64;101392.59;5056066;28;20044;-79
2021/01/01 06:40:33;;;;;;;3.08;1.10;;;;;;;13.46;40.10;101391.41;5055769;28;20502;-79
2021/01/01 06:43:00;;;;;;;8.55;2.25;;;;;;;13.45;40.18;101400.72;5049645;28;20040;-80
2021/01/01 06:45:46;;;;;;;9.00;2.05;;;;;;;13.38;40.82;101401.22;5055524;28;20033;-82
2021/01/01 06:48:20;;;;;;;4.18;1.30;;;;;;;13.47;40.32;101407.53;5073480;28;20398;-79
2021/01/01 06:50:49;;;;;;;6.20;1.52;;;;;;;13.50;40.15;101408.84;5055711;28;20471;-79
2021/01/01 06:53:16;;;;;;;7.40;1.52;;;;;;;13.44;40.35;101413.66;5073361;28;20116;-79
2021/01/01 06:55:47;;;;;;;6.43;1.65;;;;;;;13.55;40.39;101419.69;5055357;28;20064;-80
2021/01/01 06:58:14;;;;;;;3.97;1.10;;;;;;;13.40;40.59;101414.59;5073269;28;20033;-84
2021/01/01 07:00:45;;;;;;;4.72;2.03;;;;;;;13.41;40.49;101413.47;5055362;28;20024;-81
2021/01/01 07:03:27;;;;;;;5.60;1.33;;;;;;;13.47;40.36;101418.53;5073252;28;20021;-79
2021/01/01 07:05:53;;;;;;;7.32;1.65;;;;;;;13.47;40.34;101425.94;5073205;28;20471;-79
2021/01/01 07:08:40;;;;;;;7.45;1.42;;;;;;;13.37;40.57;101427.00;5072886;28;20039;-84
2021/01/01 07:11:09;;;;;;;10.57;1.30;;;;;;;13.39;40.28;101440.44;5055230;28;20029;-85
2021/01/01 07:13:48;;;;;;;6.95;1.50;;;;;;;13.27;41.16;101432.78;5055155;28;20467;-80
2021/01/01 07:16:18;;;;;;;2.75;0.98;;;;;;;13.37;40.53;101439.94;5073057;28;20107;-79
2021/01/01 07:18:44;;;;;;;4.05;1.63;;;;;;;13.37;40.55;101442.69;5073042;28;20020;-79
2021/01/01 07:21:13;;;;;;;7.18;1.83;;;;;;;13.34;40.49;101438.63;5055266;28;20548;-80
2021/01/01 07:23:39;;;;;;;6.28;1.70;;;;;;;13.27;40.69;101444.56;5055010;28;20025;-83
2021/01/01 07:26:05;;;;;;;7.32;1.52;;;;;;;13.23;40.77;101443.59;5072446;28;20040;-83
2021/01/01 07:28:31;;;;;;;9.60;2.20;;;;;;;13.23;40.81;101443.59;5054042;28;20414;-79
2021/01/01 07:30:58;;;;;;;5.70;1.23;;;;;;;13.19;40.93;101444.47;5054518;28;20457;-79
2021/01/01 07:33:27;;;;;;;4.93;1.52;;;;;;;13.13;41.04;101443.78;5054603;28;20376;-80
2021/01/01 07:35:54;;;;;;;5.72;1.75;;;;;;;13.14;41.39;101456.38;5072700;28;20040;-79
2021/01/01 07:38:21;;;;;;;3.23;0.97;;;;;;;13.19;41.43;101458.19;5054924;28;20036;-80
2021/01/01 07:40:47;;;;;;;3.47;1.10;;;;;;;13.19;41.48;101460.94;5072613;28;20036;-79
2021/01/01 07:43:13;;;;;;;4.53;1.35;;;;;;;13.25;41.03;101459.72;5054783;28;20411;-79
2021/01/01 07:45:38;;;;;;;6.27;1.53;;;;;;;13.28;41.10;101468.13;5072763;28;20060;-83
2021/01/01 07:48:05;;;;;;;6.77;1.30;;;;;;;13.32;40.93;101460.09;5054317;28;20028;-85
2021/01/01 07:50:32;;;;;;;5.28;1.10;;;;;;;13.25;41.23;101466.03;5072629;28;20032;-86
2021/01/01 07:53:01;;;;;;;34.75;24.08;;;;;;;13.29;40.91;101475.25;5072537;28;20025;-85
2021/01/01 07:55:27;;;;;;;19.42;12.65;;;;;;;13.19;41.30;101471.94;5072688;28;20031;-84
2021/01/01 07:57:58;;;;;;;4.35;2.05;;;;;;;13.26;40.86;101473.13;5072632;28;20025;-79
2021/01/01 08:00:29;;;;;;;11.48;2.42;;;;;;;13.21;40.81;101475.19;5072612;28;20021;-79
2021/01/01 08:02:55;;;;;;;7.75;1.27;;;;;;;13.21;40.73;101470.50;5072742;28;20044;-79
2021/01/01 08:05:21;;;;;;;6.18;1.33;;;;;;;13.16;40.94;101470.63;5072544;28;20029;-84
2021/01/01 08:07:46;;;;;;;3.47;1.30;;;;;;;13.07;40.71;101477.97;5072433;28;20417;-80
2021/01/01 08:10:12;;;;;;;4.57;1.23;;;;;;;13.07;40.84;101472.47;5072548;28;20051;-86
2021/01/01 08:12:38;;;;;;;8.03;1.57;;;;;;;13.05;40.90;101481.03;5072583;28;20021;-79
2021/01/01 08:15:04;;;;;;;4.87;1.30;;;;;;;12.99;41.05;101479.53;5054472;28;20419;-80
2021/01/01 08:17:30;;;;;;;9.00;1.50;;;;;;;12.97;40.98;101483.72;5072463;28;20422;-79
2021/01/01 08:19:56;;;;;;;3.57;1.17;;;;;;;12.88;41.24;101477.34;5072357;28;20025;-79
2021/01/01 08:22:28;;;;;;;5.53;1.30;;;;;;;12.89;40.89;101489.94;5072236;28;20021;-79
2021/01/01 08:24:56;;;;;;;5.82;1.50;;;;;;;12.96;40.86;101487.56;5054363;28;20364;-85
2021/01/01 08:27:24;;;;;;;3.70;1.40;;;;;;;12.80;41.12;101492.59;5072207;28;20098;-83
2021/01/01 08:29:51;;;;;;;6.20;1.43;;;;;;;12.84;40.88;101490.84;5070914;28;20123;-84
2021/01/01 08:32:18;;;;;;;8.73;1.53;;;;;;;12.76;41.04;101488.84;5072046;28;20108;-79
2021/01/01 08:34:49;;;;;;;7.10;1.53;;;;;;;12.73;40.95;101498.50;5072225;28;20031;-78
2021/01/01 08:37:22;;;;;;;6.10;1.43;;;;;;;12.70;40.89;101498.34;5032268;28;20064;-78
2021/01/01 08:40:00;;;;;;;7.80;1.23;;;;;;;12.99;40.50;101501.47;5032440;28;20038;-76
2021/01/01 08:42:32;;;;;;;6.50;1.50;;;;;;;13.09;39.88;101513.34;5036166;28;20029;-79
2021/01/01 08:44:58;;;;;;;6.50;1.57;;;;;;;13.21;39.71;101517.16;5052527;28;20052;-79
2021/01/01 08:47:41;;;;;;;9.03;1.87;;;;;;;13.12;39.87;101518.19;5055477;28;20065;-78
2021/01/01 08:50:27;;;;;;;7.97;1.50;;;;;;;13.08;40.08;101519.97;5055248;28;20029;-79
2021/01/01 08:53:01;;;;;;;4.67;1.30;;;;;;;12.90;40.40;101516.25;5054961;28;20112;-80
2021/01/01 08:55:28;;;;;;;6.93;1.43;;;;;;;12.95;40.39;101522.44;5056125;28;20107;-78
2021/01/01 08:58:16;;;;;;;3.37;1.27;;;;;;;12.76;40.98;101513.53;5056406;28;20032;-87
2021/01/01 09:00:44;;;;;;;6.10;1.23;;;;;;;12.88;40.79;101523.97;5055917;28;20498;-82
2021/01/01 09:03:11;;;;;;;4.33;1.30;;;;;;;12.97;40.67;101516.63;5045116;28;20028;-83
2021/01/01 09:05:37;;;;;;;6.80;2.60;;;;;;;12.79;41.31;101518.41;5034329;28;20491;-79
2021/01/01 09:08:15;;;;;;;5.53;2.40;;;;;;;12.78;41.54;101523.09;5035147;28;20082;-77
2021/01/01 09:10:43;;;;;;;8.13;2.30;;;;;;;12.84;41.49;101522.97;5034258;28;20384;-79
2021/01/01 09:13:26;;;;;;;7.30;2.20;;;;;;;12.80;41.86;101519.22;5034691;28;20397;-80
2021/01/01 09:16:03;;;;;;;9.93;2.80;;;;;;;12.81;41.79;101520.84;5035655;28;20036;-81
2021/01/01 09:18:30;;;;;;;9.55;4.70;;;;;;;12.88;41.83;101529.47;5034731;28;20021;-79
2021/01/01 09:21:15;;;;;;;11.48;2.40;;;;;;;12.88;41.76;101529.47;5035628;28;20026;-82
2021/01/01 09:23:49;;;;;;;6.27;1.63;;;;;;;12.93;41.87;101521.94;5034756;28;20033;-91
2021/01/01 09:26:21;;;;;;;10.63;3.00;;;;;;;12.87;41.99;101538.81;5034881;28;20033;-85
2021/01/01 09:28:47;;;;;;;2.60;1.70;;;;;;;12.99;42.04;101536.31;5054284;28;20025;-81
2021/01/01 09:31:16;;;;;;;3.37;2.23;;;;;;;13.14;41.57;101535.97;5053634;28;20025;-88
2021/01/01 09:33:59;;;;;;;4.80;1.98;;;;;;;13.18;41.51;101539.72;5055303;28;20067;-89
2021/01/01 09:36:24;;;;;;;4.73;1.40;;;;;;;13.21;41.42;101539.13;5081578;28;20452;-79
2021/01/01 09:38:50;;;;;;;10.15;3.03;;;;;;;13.25;41.54;101540.13;5093706;28;20028;-89
2021/01/01 09:41:16;;;;;;;6.57;1.65;;;;;;;13.32;41.45;101542.44;5094383;28;20497;-90
2021/01/01 09:43:43;;;;;;;5.50;2.33;;;;;;;13.29;41.62;101546.59;5095546;28;20050;-80
2021/01/01 09:46:08;;;;;;;4.93;2.23;;;;;;;13.23;41.89;101547.06;5095561;28;20020;-80
2021/01/01 09:48:34;;;;;;;7.13;2.10;;;;;;;13.45;41.61;101548.97;5094274;28;20028;-79
2021/01/01 09:51:00;;;;;;;5.43;1.20;;;;;;;13.32;41.92;101550.69;5070574;28;20032;-78
2021/01/01 09:53:25;;;;;;;5.03;1.42;;;;;;;13.43;41.68;101551.22;5076680;28;20405;-80
2021/01/01 09:55:51;;;;;;;7.07;2.03;;;;;;;13.27;41.87;101559.84;5093783;28;20421;-80
2021/01/01 09:58:18;;;;;;;6.35;1.50;;;;;;;13.49;41.66;101548.03;5094231;28;20027;-80
2021/01/01 10:00:44;;;;;;;10.38;2.20;;;;;;;13.61;41.46;101558.47;5076415;28;20485;-80
2021/01/01 10:03:09;;;;;;;7.63;2.63;;;;;;;13.63;41.74;101556.22;5076195;28;20059;-80
2021/01/01 10:05:35;;;;;;;10.97;3.17;;;;;;;13.68;41.62;101560.75;5093676;28;20434;-81
2021/01/01 10:08:00;;;;;;;13.90;9.93;;;;;;;13.77;41.22;101565.19;5075652;28;20478;-79
2021/01/01 10:10:27;;;;;;;13.65;8.40;;;;;;;13.88;41.05;101563.78;5069175;28;20466;-84
2021/01/01 10:12:53;;;;;;;41.30;30.52;;;;;;;13.77;41.38;101567.94;5058962;28;20425;-80
2021/01/01 10:15:19;;;;;;;9.93;4.63;;;;;;;13.85;40.82;101567.19;5093325;28;20036;-83
2021/01/01 10:17:44;;;;;;;22.48;18.52;;;;;;;14.04;40.72;101571.63;5075803;28;20124;-80
2021/01/01 10:20:10;;;;;;;9.50;5.70;;;;;;;14.03;41.00;101570.00;5085344;28;20035;-78
2021/01/01 10:22:36;;;;;;;8.40;2.40;;;;;;;14.11;40.82;101569.22;5075834;28;20032;-88
2021/01/01 10:25:03;;;;;;;6.37;1.60;;;;;;;14.03;40.73;101565.31;5078911;28;20089;-83
2021/01/01 10:27:28;;;;;;;7.27;2.10;;;;;;;14.02;40.98;101574.69;5106347;28;20027;-77
2021/01/01 10:29:54;;;;;;;9.07;1.73;;;;;;;14.24;40.43;101562.81;5074522;28;20436;-88
2021/01/01 10:32:20;;;;;;;6.32;2.00;;;;;;;14.32;40.35;101570.28;5052248;28;20648;-78
2021/01/01 10:34:45;;;;;;;6.93;1.43;;;;;;;14.40;40.39;101576.94;5059195;28;20032;-78
2021/01/01 10:37:12;;;;;;;6.10;1.25;;;;;;;14.35;40.46;101577.88;5094165;28;20047;-77
2021/01/01 10:39:38;;;;;;;6.30;2.30;;;;;;;14.41;40.49;101578.56;5078597;28;20542;-79
2021/01/01 10:42:05;;;;;;;6.10;3.35;;;;;;;14.42;40.41;101578.25;5073543;28;20059;-79
2021/01/01 10:44:31;;;;;;;8.57;2.90;;;;;;;14.57;40.15;101579.78;5074677;28;20442;-80
2021/01/01 10:46:57;;;;;;;8.20;2.53;;;;;;;14.59;39.89;101583.03;5071801;28;20099;-79
2021/01/01 10:49:24;;;;;;;9.40;2.10;;;;;;;14.53;39.86;101584.31;5071980;28;20073;-83
2021/01/01 10:51:51;;;;;;;3.40;1.50;;;;;;;14.56;39.92;101585.59;5073357;28;20032;-80
2021/01/01 10:54:17;;;;;;;5.90;1.90;;;;;;;14.59;39.90;101580.28;5055243;28;20059;-80
2021/01/01 10:56:45;;;;;;;2.30;1.17;;;;;;;14.27;40.54;101588.84;5075193;28;20036;-80
2021/01/01 10:59:11;;;;;;;5.55;1.67;;;;;;;14.48;40.06;101583.63;5056207;28;20882;-80
2021/01/01 11:01:37;;;;;;;9.20;2.72;;;;;;;14.48;40.08;101586.38;5056452;28;20024;-80
2021/01/01 11:04:03;;;;;;;12.43;2.67;;;;;;;14.39;40.53;101584.38;5074353;28;20032;-80
2021/01/01 11:06:28;;;;;;;4.93;1.85;;;;;;;14.06;41.15;101591.38;5074336;28;20078;-80
2021/01/01 11:08:54;;;;;;;4.63;1.95;;;;;;;14.10;40.94;101587.66;5075370;28;20053;-81
2021/01/01 11:11:22;;;;;;;5.35;2.17;;;;;;;14.15;40.94;101589.47;5074107;28;20549;-82
2021/01/01 11:13:52;;;;;;;7.07;2.15;;;;;;;13.91;41.72;101586.28;5075087;28;20020;-85
2021/01/01 12:22:49;;;;;;;11.10;7.93;;;;;;;15.24;40.56;101570.31;5080193;28;20027;-74
2021/01/01 12:25:15;;;;;;;9.10;3.15;;;;;;;15.36;40.25;101567.72;5073703;28;20056;-74
2021/01/01 12:27:42;;;;;;;6.50;1.92;;;;;;;15.16;40.69;101579.38;5079111;28;20052;-74
2021/01/01 12:30:09;;;;;;;5.75;2.10;;;;;;;15.04;40.85;101570.94;5067680;28;21725;-75
2021/01/01 12:32:37;;;;;;;6.80;5.07;;;;;;;15.34;40.31;101570.00;5072484;28;20455;-74
2021/01/01 12:35:04;;;;;;;7.13;2.63;;;;;;;15.52;39.95;101582.63;5074473;28;20027;-75